sensor_id;sensor_type;location;lat;lon;timestamp;P1;durP1;ratioP1;P2;durP2;ratioP2
14171;SDS011;7165;52.388;4.928;2023-02-28T00:01:07;5.00;;;3.90;;
14171;SDS011;7165;52.388;4.928;2023-02-28T00:03:34;6.57;;;4.23;;
14171;SDS011;7165;52.388;4.928;2023-02-28T00:06:01;7.93;;;4.63;;
14171;SDS011;7165;52.388;4.928;2023-02-28T00:08:29;5.07;;;4.67;;
14171;SDS011;7165;52.388;4.928;2023-02-28T00:10:59;4.90;;;4.43;;
14171;SDS011;7165;52.388;4.928;2023-02-28T00:13:29;7.97;;;4.70;;
14171;SDS011;7165;52.388;4.928;2023-02-28T00:16:01;4.57;;;4.10;;
14171;SDS011;7165;52.388;4.928;2023-02-28T00:18:39;4.73;;;4.23;;
14171;SDS011;7165;52.388;4.928;2023-02-28T00:21:07;4.73;;;4.40;;
14171;SDS011;7165;52.388;4.928;2023-02-28T00:23:34;5.87;;;5.03;;
14171;SDS011;7165;52.388;4.928;2023-02-28T00:26:02;5.13;;;4.57;;
14171;SDS011;7165;52.388;4.928;2023-02-28T00:28:29;4.93;;;4.17;;
14171;SDS011;7165;52.388;4.928;2023-02-28T00:30:56;5.13;;;4.63;;
14171;SDS011;7165;52.388;4.928;2023-02-28T00:33:24;4.70;;;4.17;;
14171;SDS011;7165;52.388;4.928;2023-02-28T00:35:51;6.80;;;4.83;;
14171;SDS011;7165;52.388;4.928;2023-02-28T00:38:26;5.03;;;4.50;;
14171;SDS011;7165;52.388;4.928;2023-02-28T00:40:53;4.60;;;4.17;;
14171;SDS011;7165;52.388;4.928;2023-02-28T00:43:21;7.03;;;4.67;;
14171;SDS011;7165;52.388;4.928;2023-02-28T00:45:47;5.73;;;4.77;;
14171;SDS011;7165;52.388;4.928;2023-02-28T00:48:14;6.27;;;4.67;;
14171;SDS011;7165;52.388;4.928;2023-02-28T00:50:41;5.00;;;4.57;;
14171;SDS011;7165;52.388;4.928;2023-02-28T00:53:07;5.93;;;4.87;;
14171;SDS011;7165;52.388;4.928;2023-02-28T00:55:34;7.13;;;4.87;;
14171;SDS011;7165;52.388;4.928;2023-02-28T00:58:00;8.10;;;4.93;;
14171;SDS011;7165;52.388;4.928;2023-02-28T01:00:28;7.93;;;4.67;;
14171;SDS011;7165;52.388;4.928;2023-02-28T01:02:55;6.33;;;4.90;;
14171;SDS011;7165;52.388;4.928;2023-02-28T01:05:22;4.87;;;4.30;;
14171;SDS011;7165;52.388;4.928;2023-02-28T01:07:49;4.90;;;4.50;;
14171;SDS011;7165;52.388;4.928;2023-02-28T01:10:15;8.07;;;5.57;;
14171;SDS011;7165;52.388;4.928;2023-02-28T01:12:42;7.20;;;5.27;;
14171;SDS011;7165;52.388;4.928;2023-02-28T01:15:09;5.83;;;5.23;;
14171;SDS011;7165;52.388;4.928;2023-02-28T01:17:37;7.43;;;4.97;;
14171;SDS011;7165;52.388;4.928;2023-02-28T01:20:05;5.30;;;4.33;;
14171;SDS011;7165;52.388;4.928;2023-02-28T01:22:32;6.50;;;4.77;;
14171;SDS011;7165;52.388;4.928;2023-02-28T01:25:00;5.53;;;5.03;;
14171;SDS011;7165;52.388;4.928;2023-02-28T01:27:27;6.67;;;5.00;;
14171;SDS011;7165;52.388;4.928;2023-02-28T01:29:53;5.60;;;5.10;;
14171;SDS011;7165;52.388;4.928;2023-02-28T01:32:20;6.77;;;5.13;;
14171;SDS011;7165;52.388;4.928;2023-02-28T01:34:48;6.97;;;5.23;;
14171;SDS011;7165;52.388;4.928;2023-02-28T01:37:15;8.13;;;4.97;;
14171;SDS011;7165;52.388;4.928;2023-02-28T01:39:41;6.37;;;5.27;;
14171;SDS011;7165;52.388;4.928;2023-02-28T01:42:08;7.40;;;6.03;;
14171;SDS011;7165;52.388;4.928;2023-02-28T01:44:58;10.57;;;5.53;;
14171;SDS011;7165;52.388;4.928;2023-02-28T01:47:44;11.63;;;5.40;;
14171;SDS011;7165;52.388;4.928;2023-02-28T01:50:15;5.40;;;4.90;;
14171;SDS011;7165;52.388;4.928;2023-02-28T01:52:45;6.80;;;5.20;;
14171;SDS011;7165;52.388;4.928;2023-02-28T01:55:12;6.27;;;4.87;;
14171;SDS011;7165;52.388;4.928;2023-02-28T01:57:41;5.67;;;5.17;;
14171;SDS011;7165;52.388;4.928;2023-02-28T02:00:12;6.80;;;5.23;;
14171;SDS011;7165;52.388;4.928;2023-02-28T02:02:41;5.67;;;5.07;;
14171;SDS011;7165;52.388;4.928;2023-02-28T02:05:09;6.90;;;5.40;;
14171;SDS011;7165;52.388;4.928;2023-02-28T02:07:39;8.57;;;5.20;;
14171;SDS011;7165;52.388;4.928;2023-02-28T02:10:10;7.17;;;5.60;;
14171;SDS011;7165;52.388;4.928;2023-02-28T02:12:50;6.87;;;5.90;;
14171;SDS011;7165;52.388;4.928;2023-02-28T02:15:29;5.77;;;5.20;;
14171;SDS011;7165;52.388;4.928;2023-02-28T02:18:01;5.77;;;4.57;;
14171;SDS011;7165;52.388;4.928;2023-02-28T02:20:58;7.87;;;5.70;;
14171;SDS011;7165;52.388;4.928;2023-02-28T02:27:09;12.50;;;6.13;;
14171;SDS011;7165;52.388;4.928;2023-02-28T02:30:05;6.57;;;5.87;;
14171;SDS011;7165;52.388;4.928;2023-02-28T02:32:53;6.73;;;4.93;;
14171;SDS011;7165;52.388;4.928;2023-02-28T02:35:38;5.50;;;5.00;;
14171;SDS011;7165;52.388;4.928;2023-02-28T02:38:09;7.47;;;5.17;;
14171;SDS011;7165;52.388;4.928;2023-02-28T02:40:45;6.70;;;5.30;;
14171;SDS011;7165;52.388;4.928;2023-02-28T02:43:32;7.00;;;5.37;;
14171;SDS011;7165;52.388;4.928;2023-02-28T02:46:06;8.63;;;5.87;;
14171;SDS011;7165;52.388;4.928;2023-02-28T02:48:38;8.67;;;5.70;;
14171;SDS011;7165;52.388;4.928;2023-02-28T02:51:10;6.90;;;6.03;;
14171;SDS011;7165;52.388;4.928;2023-02-28T02:53:42;6.53;;;5.83;;
14171;SDS011;7165;52.388;4.928;2023-02-28T02:56:14;6.57;;;5.97;;
14171;SDS011;7165;52.388;4.928;2023-02-28T02:58:44;6.00;;;4.90;;
14171;SDS011;7165;52.388;4.928;2023-02-28T03:01:16;7.60;;;5.43;;
14171;SDS011;7165;52.388;4.928;2023-02-28T03:03:52;6.53;;;5.57;;
14171;SDS011;7165;52.388;4.928;2023-02-28T03:06:23;5.97;;;4.97;;
14171;SDS011;7165;52.388;4.928;2023-02-28T03:08:50;5.97;;;5.53;;
14171;SDS011;7165;52.388;4.928;2023-02-28T03:11:16;5.57;;;5.00;;
14171;SDS011;7165;52.388;4.928;2023-02-28T03:13:51;8.67;;;5.67;;
14171;SDS011;7165;52.388;4.928;2023-02-28T03:16:35;7.77;;;6.07;;
14171;SDS011;7165;52.388;4.928;2023-02-28T03:19:17;6.30;;;5.70;;
14171;SDS011;7165;52.388;4.928;2023-02-28T03:21:59;5.97;;;5.47;;
14171;SDS011;7165;52.388;4.928;2023-02-28T03:24:39;5.70;;;4.70;;
14171;SDS011;7165;52.388;4.928;2023-02-28T03:27:13;6.47;;;4.97;;
14171;SDS011;7165;52.388;4.928;2023-02-28T03:29:46;7.03;;;6.23;;
14171;SDS011;7165;52.388;4.928;2023-02-28T03:32:18;7.30;;;5.63;;
14171;SDS011;7165;52.388;4.928;2023-02-28T03:34:50;7.90;;;5.87;;
14171;SDS011;7165;52.388;4.928;2023-02-28T03:37:25;8.90;;;5.83;;
14171;SDS011;7165;52.388;4.928;2023-02-28T03:39:56;5.20;;;4.67;;
14171;SDS011;7165;52.388;4.928;2023-02-28T03:42:27;8.63;;;5.13;;
14171;SDS011;7165;52.388;4.928;2023-02-28T03:44:56;5.97;;;5.10;;
14171;SDS011;7165;52.388;4.928;2023-02-28T03:47:27;7.80;;;5.43;;
14171;SDS011;7165;52.388;4.928;2023-02-28T03:49:59;9.13;;;6.20;;
14171;SDS011;7165;52.388;4.928;2023-02-28T03:52:31;7.87;;;5.33;;
14171;SDS011;7165;52.388;4.928;2023-02-28T03:55:01;6.30;;;4.83;;
14171;SDS011;7165;52.388;4.928;2023-02-28T03:57:34;6.53;;;5.87;;
14171;SDS011;7165;52.388;4.928;2023-02-28T04:00:06;6.87;;;5.43;;
14171;SDS011;7165;52.388;4.928;2023-02-28T04:02:36;7.13;;;5.27;;
14171;SDS011;7165;52.388;4.928;2023-02-28T04:05:02;6.40;;;5.30;;
14171;SDS011;7165;52.388;4.928;2023-02-28T04:07:31;5.30;;;4.87;;
14171;SDS011;7165;52.388;4.928;2023-02-28T04:09:57;6.07;;;5.23;;
14171;SDS011;7165;52.388;4.928;2023-02-28T04:12:24;6.57;;;4.80;;
14171;SDS011;7165;52.388;4.928;2023-02-28T04:14:51;6.30;;;4.57;;
14171;SDS011;7165;52.388;4.928;2023-02-28T04:17:18;5.30;;;4.80;;
14171;SDS011;7165;52.388;4.928;2023-02-28T04:19:45;8.07;;;4.83;;
14171;SDS011;7165;52.388;4.928;2023-02-28T04:22:11;5.17;;;4.70;;
14171;SDS011;7165;52.388;4.928;2023-02-28T04:24:39;4.90;;;4.17;;
14171;SDS011;7165;52.388;4.928;2023-02-28T04:27:07;6.37;;;4.97;;
14171;SDS011;7165;52.388;4.928;2023-02-28T04:29:35;4.83;;;4.37;;
14171;SDS011;7165;52.388;4.928;2023-02-28T04:32:02;5.97;;;5.07;;
14171;SDS011;7165;52.388;4.928;2023-02-28T04:34:30;6.93;;;6.13;;
14171;SDS011;7165;52.388;4.928;2023-02-28T04:36:58;4.80;;;4.40;;
14171;SDS011;7165;52.388;4.928;2023-02-28T04:39:25;8.83;;;6.00;;
14171;SDS011;7165;52.388;4.928;2023-02-28T04:41:53;7.70;;;6.00;;
14171;SDS011;7165;52.388;4.928;2023-02-28T04:44:20;5.60;;;5.10;;
14171;SDS011;7165;52.388;4.928;2023-02-28T04:46:47;8.77;;;6.93;;
14171;SDS011;7165;52.388;4.928;2023-02-28T04:49:14;6.57;;;5.93;;
14171;SDS011;7165;52.388;4.928;2023-02-28T04:51:41;7.93;;;5.87;;
14171;SDS011;7165;52.388;4.928;2023-02-28T04:54:08;7.30;;;5.33;;
14171;SDS011;7165;52.388;4.928;2023-02-28T04:56:35;6.40;;;5.73;;
14171;SDS011;7165;52.388;4.928;2023-02-28T04:59:02;8.20;;;6.20;;
14171;SDS011;7165;52.388;4.928;2023-02-28T05:01:30;8.47;;;5.40;;
14171;SDS011;7165;52.388;4.928;2023-02-28T05:03:59;6.37;;;5.53;;
14171;SDS011;7165;52.388;4.928;2023-02-28T05:06:27;8.10;;;5.77;;
14171;SDS011;7165;52.388;4.928;2023-02-28T05:08:56;6.77;;;5.73;;
14171;SDS011;7165;52.388;4.928;2023-02-28T05:11:24;7.93;;;7.10;;
14171;SDS011;7165;52.388;4.928;2023-02-28T05:13:52;7.57;;;6.83;;
14171;SDS011;7165;52.388;4.928;2023-02-28T05:16:21;8.13;;;7.17;;
14171;SDS011;7165;52.388;4.928;2023-02-28T05:18:47;8.93;;;7.83;;
14171;SDS011;7165;52.388;4.928;2023-02-28T05:21:22;10.30;;;7.57;;
14171;SDS011;7165;52.388;4.928;2023-02-28T05:23:51;13.40;;;7.70;;
14171;SDS011;7165;52.388;4.928;2023-02-28T05:26:18;8.93;;;7.53;;
14171;SDS011;7165;52.388;4.928;2023-02-28T05:28:45;7.07;;;6.40;;
14171;SDS011;7165;52.388;4.928;2023-02-28T05:31:12;7.70;;;6.83;;
14171;SDS011;7165;52.388;4.928;2023-02-28T05:33:40;7.80;;;6.50;;
14171;SDS011;7165;52.388;4.928;2023-02-28T05:36:07;11.10;;;8.43;;
14171;SDS011;7165;52.388;4.928;2023-02-28T05:38:34;9.73;;;7.83;;
14171;SDS011;7165;52.388;4.928;2023-02-28T05:41:04;8.00;;;7.30;;
14171;SDS011;7165;52.388;4.928;2023-02-28T05:43:31;7.70;;;7.03;;
14171;SDS011;7165;52.388;4.928;2023-02-28T05:45:58;8.20;;;6.93;;
14171;SDS011;7165;52.388;4.928;2023-02-28T05:48:24;9.47;;;8.10;;
14171;SDS011;7165;52.388;4.928;2023-02-28T05:50:52;8.20;;;7.30;;
14171;SDS011;7165;52.388;4.928;2023-02-28T05:53:19;8.93;;;7.50;;
14171;SDS011;7165;52.388;4.928;2023-02-28T05:55:46;9.67;;;8.67;;
14171;SDS011;7165;52.388;4.928;2023-02-28T05:58:13;9.43;;;8.53;;
14171;SDS011;7165;52.388;4.928;2023-02-28T06:00:39;9.70;;;8.70;;
14171;SDS011;7165;52.388;4.928;2023-02-28T06:03:06;10.03;;;9.10;;
14171;SDS011;7165;52.388;4.928;2023-02-28T06:05:33;12.67;;;10.23;;
14171;SDS011;7165;52.388;4.928;2023-02-28T06:08:01;12.70;;;10.90;;
14171;SDS011;7165;52.388;4.928;2023-02-28T06:10:27;12.23;;;11.03;;
14171;SDS011;7165;52.388;4.928;2023-02-28T06:12:54;11.17;;;10.17;;
14171;SDS011;7165;52.388;4.928;2023-02-28T06:15:21;11.20;;;10.10;;
14171;SDS011;7165;52.388;4.928;2023-02-28T06:17:47;12.57;;;11.23;;
14171;SDS011;7165;52.388;4.928;2023-02-28T06:20:14;13.07;;;11.70;;
14171;SDS011;7165;52.388;4.928;2023-02-28T06:22:41;11.43;;;10.37;;
14171;SDS011;7165;52.388;4.928;2023-02-28T06:25:09;14.73;;;11.30;;
14171;SDS011;7165;52.388;4.928;2023-02-28T06:27:36;12.70;;;11.53;;
14171;SDS011;7165;52.388;4.928;2023-02-28T06:30:03;12.80;;;11.50;;
14171;SDS011;7165;52.388;4.928;2023-02-28T06:32:31;13.20;;;11.87;;
14171;SDS011;7165;52.388;4.928;2023-02-28T06:34:57;12.30;;;11.00;;
14171;SDS011;7165;52.388;4.928;2023-02-28T06:37:24;12.90;;;11.73;;
14171;SDS011;7165;52.388;4.928;2023-02-28T06:39:52;14.77;;;11.77;;
14171;SDS011;7165;52.388;4.928;2023-02-28T06:42:22;13.60;;;12.10;;
14171;SDS011;7165;52.388;4.928;2023-02-28T06:44:49;14.23;;;12.73;;
14171;SDS011;7165;52.388;4.928;2023-02-28T06:47:16;14.73;;;11.73;;
14171;SDS011;7165;52.388;4.928;2023-02-28T06:49:43;14.47;;;13.00;;
14171;SDS011;7165;52.388;4.928;2023-02-28T06:52:10;14.20;;;12.70;;
14171;SDS011;7165;52.388;4.928;2023-02-28T06:54:37;15.10;;;13.50;;
14171;SDS011;7165;52.388;4.928;2023-02-28T06:57:03;14.83;;;13.33;;
14171;SDS011;7165;52.388;4.928;2023-02-28T06:59:32;13.17;;;11.20;;
14171;SDS011;7165;52.388;4.928;2023-02-28T07:02:00;12.40;;;11.30;;
14171;SDS011;7165;52.388;4.928;2023-02-28T07:04:27;11.40;;;10.27;;
14171;SDS011;7165;52.388;4.928;2023-02-28T07:06:54;10.20;;;9.30;;
14171;SDS011;7165;52.388;4.928;2023-02-28T07:09:21;10.10;;;9.10;;
14171;SDS011;7165;52.388;4.928;2023-02-28T07:11:47;9.80;;;8.90;;
14171;SDS011;7165;52.388;4.928;2023-02-28T07:14:14;9.10;;;8.27;;
14171;SDS011;7165;52.388;4.928;2023-02-28T07:16:42;9.83;;;8.93;;
14171;SDS011;7165;52.388;4.928;2023-02-28T07:19:10;10.30;;;9.40;;
14171;SDS011;7165;52.388;4.928;2023-02-28T07:21:37;9.10;;;8.27;;
14171;SDS011;7165;52.388;4.928;2023-02-28T07:24:03;9.60;;;8.80;;
14171;SDS011;7165;52.388;4.928;2023-02-28T07:26:30;8.43;;;7.73;;
14171;SDS011;7165;52.388;4.928;2023-02-28T07:28:59;8.63;;;7.90;;
14171;SDS011;7165;52.388;4.928;2023-02-28T07:31:25;8.13;;;7.33;;
14171;SDS011;7165;52.388;4.928;2023-02-28T07:33:53;7.63;;;7.03;;
14171;SDS011;7165;52.388;4.928;2023-02-28T07:36:21;8.00;;;7.40;;
14171;SDS011;7165;52.388;4.928;2023-02-28T07:38:48;7.83;;;7.23;;
14171;SDS011;7165;52.388;4.928;2023-02-28T07:43:41;9.47;;;8.57;;
14171;SDS011;7165;52.388;4.928;2023-02-28T07:46:09;8.40;;;7.70;;
14171;SDS011;7165;52.388;4.928;2023-02-28T07:48:37;9.57;;;8.63;;
14171;SDS011;7165;52.388;4.928;2023-02-28T07:51:05;9.87;;;8.93;;
14171;SDS011;7165;52.388;4.928;2023-02-28T07:53:32;9.57;;;8.67;;
14171;SDS011;7165;52.388;4.928;2023-02-28T07:56:00;10.00;;;9.20;;
14171;SDS011;7165;52.388;4.928;2023-02-28T07:58:28;8.30;;;7.70;;
14171;SDS011;7165;52.388;4.928;2023-02-28T08:00:56;9.03;;;8.33;;
14171;SDS011;7165;52.388;4.928;2023-02-28T08:03:33;9.63;;;8.83;;
14171;SDS011;7165;52.388;4.928;2023-02-28T08:06:00;9.23;;;8.33;;
14171;SDS011;7165;52.388;4.928;2023-02-28T08:08:28;9.77;;;8.87;;
14171;SDS011;7165;52.388;4.928;2023-02-28T08:10:57;9.50;;;8.70;;
14171;SDS011;7165;52.388;4.928;2023-02-28T08:13:25;10.10;;;9.20;;
14171;SDS011;7165;52.388;4.928;2023-02-28T08:15:52;9.07;;;8.17;;
14171;SDS011;7165;52.388;4.928;2023-02-28T08:18:19;8.50;;;7.70;;
14171;SDS011;7165;52.388;4.928;2023-02-28T08:20:46;10.13;;;9.13;;
14171;SDS011;7165;52.388;4.928;2023-02-28T08:23:13;8.60;;;8.00;;
14171;SDS011;7165;52.388;4.928;2023-02-28T08:25:41;8.77;;;8.07;;
14171;SDS011;7165;52.388;4.928;2023-02-28T08:28:07;9.53;;;8.77;;
14171;SDS011;7165;52.388;4.928;2023-02-28T08:30:34;9.87;;;8.93;;
14171;SDS011;7165;52.388;4.928;2023-02-28T08:33:01;9.70;;;8.70;;
14171;SDS011;7165;52.388;4.928;2023-02-28T08:35:27;8.37;;;7.57;;
14171;SDS011;7165;52.388;4.928;2023-02-28T08:37:54;9.47;;;8.67;;
14171;SDS011;7165;52.388;4.928;2023-02-28T08:40:21;8.80;;;8.10;;
14171;SDS011;7165;52.388;4.928;2023-02-28T08:42:49;8.77;;;7.97;;
14171;SDS011;7165;52.388;4.928;2023-02-28T08:45:15;9.27;;;8.50;;
14171;SDS011;7165;52.388;4.928;2023-02-28T08:47:42;8.90;;;8.00;;
14171;SDS011;7165;52.388;4.928;2023-02-28T08:50:09;9.77;;;8.77;;
14171;SDS011;7165;52.388;4.928;2023-02-28T08:52:36;9.43;;;8.63;;
14171;SDS011;7165;52.388;4.928;2023-02-28T08:55:03;8.67;;;7.97;;
14171;SDS011;7165;52.388;4.928;2023-02-28T08:57:30;10.77;;;8.47;;
14171;SDS011;7165;52.388;4.928;2023-02-28T08:59:59;8.70;;;7.90;;
14171;SDS011;7165;52.388;4.928;2023-02-28T09:02:27;9.23;;;8.33;;
14171;SDS011;7165;52.388;4.928;2023-02-28T09:04:54;8.83;;;8.07;;
14171;SDS011;7165;52.388;4.928;2023-02-28T09:07:21;8.30;;;7.60;;
14171;SDS011;7165;52.388;4.928;2023-02-28T09:09:47;9.03;;;8.30;;
14171;SDS011;7165;52.388;4.928;2023-02-28T09:12:20;9.70;;;8.77;;
14171;SDS011;7165;52.388;4.928;2023-02-28T09:14:47;9.00;;;8.20;;
14171;SDS011;7165;52.388;4.928;2023-02-28T09:17:15;8.87;;;8.07;;
14171;SDS011;7165;52.388;4.928;2023-02-28T09:19:42;8.60;;;7.90;;
14171;SDS011;7165;52.388;4.928;2023-02-28T09:22:09;9.67;;;8.77;;
14171;SDS011;7165;52.388;4.928;2023-02-28T09:24:36;10.17;;;9.27;;
14171;SDS011;7165;52.388;4.928;2023-02-28T09:27:03;8.67;;;7.73;;
14171;SDS011;7165;52.388;4.928;2023-02-28T09:29:31;8.43;;;7.73;;
14171;SDS011;7165;52.388;4.928;2023-02-28T09:31:58;8.43;;;7.73;;
14171;SDS011;7165;52.388;4.928;2023-02-28T09:34:26;8.97;;;8.17;;
14171;SDS011;7165;52.388;4.928;2023-02-28T09:36:55;8.30;;;7.50;;
14171;SDS011;7165;52.388;4.928;2023-02-28T09:39:22;9.47;;;8.53;;
14171;SDS011;7165;52.388;4.928;2023-02-28T09:41:51;9.53;;;8.63;;
14171;SDS011;7165;52.388;4.928;2023-02-28T09:44:20;9.90;;;9.00;;
14171;SDS011;7165;52.388;4.928;2023-02-28T09:46:53;11.50;;;9.70;;
14171;SDS011;7165;52.388;4.928;2023-02-28T09:49:23;9.63;;;8.70;;
14171;SDS011;7165;52.388;4.928;2023-02-28T09:51:57;10.43;;;9.27;;
14171;SDS011;7165;52.388;4.928;2023-02-28T09:54:27;8.33;;;7.53;;
14171;SDS011;7165;52.388;4.928;2023-02-28T09:56:57;7.60;;;6.90;;
14171;SDS011;7165;52.388;4.928;2023-02-28T10:02:24;7.57;;;6.87;;
14171;SDS011;7165;52.388;4.928;2023-02-28T10:05:24;7.73;;;7.13;;
14171;SDS011;7165;52.388;4.928;2023-02-28T10:07:58;9.30;;;8.27;;
14171;SDS011;7165;52.388;4.928;2023-02-28T10:10:32;9.63;;;7.27;;
14171;SDS011;7165;52.388;4.928;2023-02-28T10:13:04;15.57;;;11.17;;
14171;SDS011;7165;52.388;4.928;2023-02-28T10:15:37;10.43;;;9.37;;
14171;SDS011;7165;52.388;4.928;2023-02-28T10:18:05;16.20;;;10.57;;
14171;SDS011;7165;52.388;4.928;2023-02-28T10:20:48;8.03;;;7.13;;
14171;SDS011;7165;52.388;4.928;2023-02-28T10:23:19;9.60;;;7.87;;
14171;SDS011;7165;52.388;4.928;2023-02-28T10:25:49;8.03;;;7.23;;
14171;SDS011;7165;52.388;4.928;2023-02-28T10:28:21;8.60;;;7.80;;
14171;SDS011;7165;52.388;4.928;2023-02-28T10:30:48;7.07;;;6.50;;
14171;SDS011;7165;52.388;4.928;2023-02-28T10:33:20;5.97;;;5.47;;
14171;SDS011;7165;52.388;4.928;2023-02-28T10:35:51;7.53;;;6.20;;
14171;SDS011;7165;52.388;4.928;2023-02-28T10:38:19;7.77;;;6.87;;
14171;SDS011;7165;52.388;4.928;2023-02-28T10:40:47;7.23;;;6.50;;
14171;SDS011;7165;52.388;4.928;2023-02-28T10:43:21;9.50;;;7.87;;
14171;SDS011;7165;52.388;4.928;2023-02-28T10:48:57;5.63;;;5.13;;
14171;SDS011;7165;52.388;4.928;2023-02-28T10:51:30;5.47;;;4.97;;
14171;SDS011;7165;52.388;4.928;2023-02-28T10:54:02;5.40;;;4.90;;
14171;SDS011;7165;52.388;4.928;2023-02-28T10:56:29;4.90;;;4.60;;
14171;SDS011;7165;52.388;4.928;2023-02-28T10:58:58;4.73;;;4.43;;
14171;SDS011;7165;52.388;4.928;2023-02-28T11:01:34;4.87;;;4.47;;
14171;SDS011;7165;52.388;4.928;2023-02-28T11:04:03;4.70;;;4.20;;
14171;SDS011;7165;52.388;4.928;2023-02-28T11:06:43;4.67;;;4.33;;
14171;SDS011;7165;52.388;4.928;2023-02-28T11:09:17;4.13;;;3.83;;
14171;SDS011;7165;52.388;4.928;2023-02-28T11:11:49;5.60;;;4.33;;
14171;SDS011;7165;52.388;4.928;2023-02-28T11:14:18;4.93;;;4.43;;
14171;SDS011;7165;52.388;4.928;2023-02-28T11:16:47;4.67;;;4.30;;
14171;SDS011;7165;52.388;4.928;2023-02-28T11:19:17;3.37;;;3.13;;
14171;SDS011;7165;52.388;4.928;2023-02-28T11:21:50;4.57;;;4.27;;
14171;SDS011;7165;52.388;4.928;2023-02-28T11:24:22;4.40;;;4.00;;
14171;SDS011;7165;52.388;4.928;2023-02-28T11:26:51;4.10;;;3.80;;
14171;SDS011;7165;52.388;4.928;2023-02-28T11:29:19;4.20;;;3.90;;
14171;SDS011;7165;52.388;4.928;2023-02-28T11:45:00;4.80;;;3.87;;
14171;SDS011;7165;52.388;4.928;2023-02-28T12:02:59;4.43;;;4.03;;
14171;SDS011;7165;52.388;4.928;2023-02-28T12:05:36;5.30;;;4.77;;
14171;SDS011;7165;52.388;4.928;2023-02-28T12:08:15;4.13;;;3.80;;
14171;SDS011;7165;52.388;4.928;2023-02-28T12:10:54;3.93;;;3.53;;
14171;SDS011;7165;52.388;4.928;2023-02-28T12:51:20;6.15;;;3.72;;
14171;SDS011;7165;52.388;4.928;2023-02-28T12:56:30;3.42;;;3.22;;
14171;SDS011;7165;52.388;4.928;2023-02-28T13:01:51;3.67;;;3.35;;
14171;SDS011;7165;52.388;4.928;2023-02-28T13:04:43;3.50;;;3.20;;
14171;SDS011;7165;52.388;4.928;2023-02-28T13:10:24;4.68;;;4.28;;
14171;SDS011;7165;52.388;4.928;2023-02-28T13:13:06;4.63;;;4.22;;
14171;SDS011;7165;52.388;4.928;2023-02-28T13:15:41;4.22;;;3.92;;
14171;SDS011;7165;52.388;4.928;2023-02-28T13:18:27;4.20;;;3.90;;
14171;SDS011;7165;52.388;4.928;2023-02-28T13:20:56;4.47;;;4.15;;
14171;SDS011;7165;52.388;4.928;2023-02-28T13:23:37;4.13;;;3.80;;
14171;SDS011;7165;52.388;4.928;2023-02-28T13:26:06;4.20;;;3.80;;
14171;SDS011;7165;52.388;4.928;2023-02-28T13:32:18;3.75;;;3.45;;
14171;SDS011;7165;52.388;4.928;2023-02-28T13:38:32;4.28;;;3.88;;
14171;SDS011;7165;52.388;4.928;2023-02-28T13:44:05;3.70;;;3.50;;
14171;SDS011;7165;52.388;4.928;2023-02-28T13:46:35;3.63;;;3.42;;
14171;SDS011;7165;52.388;4.928;2023-02-28T13:49:25;3.92;;;3.63;;
14171;SDS011;7165;52.388;4.928;2023-02-28T13:51:54;4.25;;;3.95;;
14171;SDS011;7165;52.388;4.928;2023-02-28T13:54:34;3.63;;;3.42;;
14171;SDS011;7165;52.388;4.928;2023-02-28T13:57:18;3.22;;;3.00;;
14171;SDS011;7165;52.388;4.928;2023-02-28T13:59:55;3.75;;;3.45;;
14171;SDS011;7165;52.388;4.928;2023-02-28T14:02:37;3.95;;;3.65;;
14171;SDS011;7165;52.388;4.928;2023-02-28T14:05:24;4.82;;;4.03;;
14171;SDS011;7165;52.388;4.928;2023-02-28T14:07:52;3.85;;;3.65;;
14171;SDS011;7165;52.388;4.928;2023-02-28T14:10:24;3.70;;;3.50;;
14171;SDS011;7165;52.388;4.928;2023-02-28T14:12:55;7.40;;;4.15;;
14171;SDS011;7165;52.388;4.928;2023-02-28T14:18:21;4.13;;;3.75;;
14171;SDS011;7165;52.388;4.928;2023-02-28T14:20:53;3.30;;;3.10;;
14171;SDS011;7165;52.388;4.928;2023-02-28T14:26:42;3.90;;;3.60;;
14171;SDS011;7165;52.388;4.928;2023-02-28T14:51:47;4.13;;;3.80;;
14171;SDS011;7165;52.388;4.928;2023-02-28T14:54:30;3.40;;;3.20;;
14171;SDS011;7165;52.388;4.928;2023-02-28T14:56:57;3.92;;;3.63;;
14171;SDS011;7165;52.388;4.928;2023-02-28T14:59:25;4.03;;;3.72;;
14171;SDS011;7165;52.388;4.928;2023-02-28T15:02:14;4.03;;;3.72;;
14171;SDS011;7165;52.388;4.928;2023-02-28T15:04:51;5.55;;;4.50;;
14171;SDS011;7165;52.388;4.928;2023-02-28T15:07:20;4.82;;;4.40;;
14171;SDS011;7165;52.388;4.928;2023-02-28T15:10:08;4.13;;;3.83;;
14171;SDS011;7165;52.388;4.928;2023-02-28T15:12:41;4.70;;;4.30;;
14171;SDS011;7165;52.388;4.928;2023-02-28T15:15:15;4.32;;;4.03;;
14171;SDS011;7165;52.388;4.928;2023-02-28T15:17:43;4.15;;;3.85;;
14171;SDS011;7165;52.388;4.928;2023-02-28T15:20:12;4.47;;;4.18;;
14171;SDS011;7165;52.388;4.928;2023-02-28T15:22:41;4.32;;;4.03;;
14171;SDS011;7165;52.388;4.928;2023-02-28T15:25:10;4.50;;;4.10;;
14171;SDS011;7165;52.388;4.928;2023-02-28T15:27:46;4.35;;;3.97;;
14171;SDS011;7165;52.388;4.928;2023-02-28T15:30:15;3.97;;;3.67;;
14171;SDS011;7165;52.388;4.928;2023-02-28T15:32:44;4.47;;;3.92;;
14171;SDS011;7165;52.388;4.928;2023-02-28T15:35:28;4.75;;;4.07;;
14171;SDS011;7165;52.388;4.928;2023-02-28T15:37:57;4.75;;;4.45;;
14171;SDS011;7165;52.388;4.928;2023-02-28T15:40:29;4.40;;;4.03;;
14171;SDS011;7165;52.388;4.928;2023-02-28T15:42:57;4.60;;;3.90;;
14171;SDS011;7165;52.388;4.928;2023-02-28T15:45:26;4.88;;;4.47;;
14171;SDS011;7165;52.388;4.928;2023-02-28T15:47:54;4.03;;;3.72;;
14171;SDS011;7165;52.388;4.928;2023-02-28T15:50:21;4.00;;;3.80;;
14171;SDS011;7165;52.388;4.928;2023-02-28T15:52:48;3.58;;;3.25;;
14171;SDS011;7165;52.388;4.928;2023-02-28T15:55:17;4.40;;;4.10;;
14171;SDS011;7165;52.388;4.928;2023-02-28T15:57:47;4.25;;;3.85;;
14171;SDS011;7165;52.388;4.928;2023-02-28T16:00:19;4.03;;;3.73;;
14171;SDS011;7165;52.388;4.928;2023-02-28T16:02:47;3.83;;;3.53;;
14171;SDS011;7165;52.388;4.928;2023-02-28T16:05:22;4.00;;;3.70;;
14171;SDS011;7165;52.388;4.928;2023-02-28T16:07:55;4.20;;;3.90;;
14171;SDS011;7165;52.388;4.928;2023-02-28T16:10:24;3.80;;;3.55;;
14171;SDS011;7165;52.388;4.928;2023-02-28T16:12:54;4.32;;;4.00;;
14171;SDS011;7165;52.388;4.928;2023-02-28T16:15:22;4.40;;;4.00;;
14171;SDS011;7165;52.388;4.928;2023-02-28T16:17:51;4.17;;;3.87;;
14171;SDS011;7165;52.388;4.928;2023-02-28T16:20:20;3.60;;;3.40;;
14171;SDS011;7165;52.388;4.928;2023-02-28T16:22:48;4.03;;;3.60;;
14171;SDS011;7165;52.388;4.928;2023-02-28T16:25:15;4.37;;;4.07;;
14171;SDS011;7165;52.388;4.928;2023-02-28T16:27:43;4.50;;;4.20;;
14171;SDS011;7165;52.388;4.928;2023-02-28T16:32:46;5.53;;;5.00;;
14171;SDS011;7165;52.388;4.928;2023-02-28T16:35:13;4.20;;;3.97;;
14171;SDS011;7165;52.388;4.928;2023-02-28T16:37:40;4.70;;;4.40;;
14171;SDS011;7165;52.388;4.928;2023-02-28T16:40:08;4.67;;;4.30;;
14171;SDS011;7165;52.388;4.928;2023-02-28T16:42:40;4.70;;;4.30;;
14171;SDS011;7165;52.388;4.928;2023-02-28T16:45:10;4.60;;;4.30;;
14171;SDS011;7165;52.388;4.928;2023-02-28T16:47:42;4.80;;;4.50;;
14171;SDS011;7165;52.388;4.928;2023-02-28T16:50:12;5.30;;;4.90;;
14171;SDS011;7165;52.388;4.928;2023-02-28T16:52:40;5.37;;;4.90;;
14171;SDS011;7165;52.388;4.928;2023-02-28T16:55:07;4.37;;;4.00;;
14171;SDS011;7165;52.388;4.928;2023-02-28T16:57:34;6.07;;;5.47;;
14171;SDS011;7165;52.388;4.928;2023-02-28T17:00:01;5.47;;;5.07;;
14171;SDS011;7165;52.388;4.928;2023-02-28T17:02:28;5.80;;;5.30;;
14171;SDS011;7165;52.388;4.928;2023-02-28T17:04:56;4.63;;;4.13;;
14171;SDS011;7165;52.388;4.928;2023-02-28T17:07:23;5.97;;;5.53;;
14171;SDS011;7165;52.388;4.928;2023-02-28T17:09:50;5.47;;;5.07;;
14171;SDS011;7165;52.388;4.928;2023-02-28T17:12:16;5.67;;;5.27;;
14171;SDS011;7165;52.388;4.928;2023-02-28T17:14:43;5.77;;;5.27;;
14171;SDS011;7165;52.388;4.928;2023-02-28T17:17:10;5.83;;;5.30;;
14171;SDS011;7165;52.388;4.928;2023-02-28T17:19:43;5.73;;;5.27;;
14171;SDS011;7165;52.388;4.928;2023-02-28T17:22:11;5.57;;;5.17;;
14171;SDS011;7165;52.388;4.928;2023-02-28T17:24:38;6.10;;;5.60;;